RCL14 YPAD-YSSY
Flight info
| Callsign | RCL14 |
|---|---|
| Flight time | 1h 33m |
| Altitude | 39000 |
| Route | AD H247 CULIN Y59 TESAT |
| Aircraft | A359/H-SDE2E3GHIJ3J4J5LM1ORWYZ/LB1D1 |
Departure
| Time | 2026-05-07 07:27 |
|---|---|
| Airport | Adelaide International Airport (YPAD) |
Arrival
| Time | 2026-05-07 09:00 |
|---|---|
| Airport | Sydney Kingsford Smith International Airport (YSSY) |
| Time | Latitude | Longitude | Altitude | Speed | Heading |
|---|---|---|---|---|---|
| 2026-05-07 06:42 | -34.93934 | 138.53827 | 33 ft | 0 kts | 320° |
| 2026-05-07 07:20 | -34.93944 | 138.53836 | 33 ft | 3 kts | 320° |
| 2026-05-07 07:20 | -34.93961 | 138.53854 | 32 ft | 3 kts | 320° |
| 2026-05-07 07:21 | -34.93976 | 138.53869 | 32 ft | 3 kts | 314° |
| 2026-05-07 07:21 | -34.93991 | 138.53898 | 30 ft | 3 kts | 273° |
| 2026-05-07 07:21 | -34.93990 | 138.53915 | 30 ft | 3 kts | 250° |
| 2026-05-07 07:21 | -34.93979 | 138.53939 | 28 ft | 3 kts | 231° |
| 2026-05-07 07:22 | -34.93975 | 138.53945 | 28 ft | 0 kts | 230° |
| 2026-05-07 07:24 | -34.93976 | 138.53945 | 32 ft | 0 kts | 227° |
| 2026-05-07 07:24 | -34.93980 | 138.53940 | 31 ft | 2 kts | 226° |
| 2026-05-07 07:24 | -34.93998 | 138.53915 | 31 ft | 6 kts | 228° |
| 2026-05-07 07:24 | -34.94044 | 138.53887 | 31 ft | 8 kts | 180° |
| 2026-05-07 07:25 | -34.94048 | 138.54006 | 32 ft | 13 kts | 54° |
| 2026-05-07 07:25 | -34.93994 | 138.54089 | 32 ft | 7 kts | 50° |
| 2026-05-07 07:25 | -34.93957 | 138.54144 | 33 ft | 10 kts | 54° |
| 2026-05-07 07:26 | -34.93971 | 138.54220 | 33 ft | 11 kts | 140° |
| 2026-05-07 07:26 | -34.94039 | 138.54289 | 33 ft | 12 kts | 140° |
| 2026-05-07 07:26 | -34.94071 | 138.54304 | 34 ft | 2 kts | 200° |
| 2026-05-07 07:26 | -34.94109 | 138.54260 | 35 ft | 23 kts | 228° |
| 2026-05-07 07:27 | -34.94406 | 138.53826 | 30 ft | 111 kts | 230° |
| 2026-05-07 07:27 | -34.95030 | 138.52911 | 398 ft | 151 kts | 229° |
| 2026-05-07 07:27 | -34.95687 | 138.51901 | 1400 ft | 155 kts | 231° |
| 2026-05-07 07:27 | -34.96418 | 138.50783 | 1993 ft | 185 kts | 228° |
| 2026-05-07 07:28 | -34.97347 | 138.49473 | 2500 ft | 219 kts | 227° |
| 2026-05-07 07:28 | -34.98377 | 138.48014 | 3443 ft | 233 kts | 227° |
| 2026-05-07 07:28 | -34.99441 | 138.46484 | 4473 ft | 239 kts | 228° |
| 2026-05-07 07:28 | -35.00520 | 138.44920 | 5629 ft | 243 kts | 227° |
| 2026-05-07 07:29 | -35.01645 | 138.43346 | 6737 ft | 248 kts | 222° |
| 2026-05-07 07:29 | -35.03081 | 138.42197 | 7797 ft | 250 kts | 197° |
| 2026-05-07 07:29 | -35.04802 | 138.42029 | 8946 ft | 253 kts | 170° |
| 2026-05-07 07:29 | -35.06423 | 138.42905 | 10130 ft | 261 kts | 148° |
| 2026-05-07 07:30 | -35.07932 | 138.44278 | 10923 ft | 283 kts | 145° |
| 2026-05-07 07:30 | -35.09446 | 138.46012 | 11405 ft | 314 kts | 133° |
| 2026-05-07 07:30 | -35.10467 | 138.48462 | 12201 ft | 337 kts | 109° |
| 2026-05-07 07:30 | -35.10644 | 138.51373 | 13217 ft | 352 kts | 91° |
| 2026-05-07 07:31 | -35.10457 | 138.54396 | 14221 ft | 361 kts | 89° |
| 2026-05-07 07:31 | -35.10234 | 138.57480 | 15099 ft | 368 kts | 88° |
| 2026-05-07 07:31 | -35.10013 | 138.60627 | 15979 ft | 376 kts | 88° |
| 2026-05-07 07:31 | -35.09796 | 138.63832 | 16870 ft | 382 kts | 88° |
| 2026-05-07 07:32 | -35.09580 | 138.67101 | 17737 ft | 390 kts | 88° |
| 2026-05-07 07:32 | -35.09362 | 138.70438 | 18599 ft | 398 kts | 88° |
| 2026-05-07 07:32 | -35.09140 | 138.73829 | 19415 ft | 404 kts | 88° |
| 2026-05-07 07:32 | -35.08916 | 138.77264 | 20226 ft | 409 kts | 88° |
| 2026-05-07 07:33 | -35.08690 | 138.80752 | 21108 ft | 415 kts | 88° |
| 2026-05-07 07:33 | -35.08460 | 138.84281 | 21976 ft | 419 kts | 88° |
| 2026-05-07 07:33 | -35.08227 | 138.87845 | 22852 ft | 424 kts | 88° |
| 2026-05-07 07:33 | -35.07991 | 138.91469 | 23614 ft | 432 kts | 88° |
| 2026-05-07 07:34 | -35.07756 | 138.95097 | 24362 ft | 437 kts | 88° |
| 2026-05-07 07:34 | -35.07509 | 138.98858 | 25099 ft | 441 kts | 88° |
| 2026-05-07 07:34 | -35.07258 | 139.02607 | 25847 ft | 445 kts | 88° |
| 2026-05-07 07:34 | -35.07008 | 139.06330 | 26572 ft | 448 kts | 87° |
| 2026-05-07 07:35 | -35.06748 | 139.10190 | 27326 ft | 452 kts | 87° |
| 2026-05-07 07:35 | -35.06488 | 139.14037 | 28009 ft | 457 kts | 87° |
| 2026-05-07 07:35 | -35.06229 | 139.17867 | 28714 ft | 461 kts | 87° |
| 2026-05-07 07:35 | -35.05963 | 139.21773 | 29403 ft | 464 kts | 87° |
| 2026-05-07 07:36 | -35.05692 | 139.25718 | 30062 ft | 468 kts | 87° |
| 2026-05-07 07:36 | -35.05419 | 139.29697 | 30673 ft | 472 kts | 86° |
| 2026-05-07 07:36 | -35.05143 | 139.33701 | 31228 ft | 475 kts | 86° |
| 2026-05-07 07:36 | -35.04864 | 139.37733 | 31803 ft | 478 kts | 86° |
| 2026-05-07 07:37 | -35.04582 | 139.41782 | 32360 ft | 480 kts | 86° |
| 2026-05-07 07:37 | -35.04297 | 139.45851 | 32891 ft | 483 kts | 86° |
| 2026-05-07 07:37 | -35.04009 | 139.49942 | 33393 ft | 486 kts | 86° |
| 2026-05-07 07:37 | -35.03718 | 139.54064 | 33892 ft | 489 kts | 86° |
| 2026-05-07 07:38 | -35.03424 | 139.58204 | 34361 ft | 491 kts | 86° |
| 2026-05-07 07:38 | -35.03127 | 139.62365 | 34732 ft | 494 kts | 86° |
| 2026-05-07 07:38 | -35.02827 | 139.66560 | 35057 ft | 498 kts | 86° |
| 2026-05-07 07:38 | -35.02523 | 139.70775 | 35418 ft | 500 kts | 86° |
| 2026-05-07 07:39 | -35.02217 | 139.74992 | 35904 ft | 499 kts | 86° |
| 2026-05-07 07:39 | -35.01910 | 139.79217 | 36358 ft | 499 kts | 86° |
| 2026-05-07 07:39 | -35.01601 | 139.83435 | 36787 ft | 500 kts | 85° |
| 2026-05-07 07:39 | -35.01291 | 139.87659 | 37193 ft | 500 kts | 85° |
| 2026-05-07 07:40 | -35.00979 | 139.91881 | 37615 ft | 500 kts | 85° |
| 2026-05-07 07:40 | -35.00666 | 139.96110 | 38022 ft | 500 kts | 85° |
| 2026-05-07 07:40 | -35.00351 | 140.00336 | 38440 ft | 500 kts | 85° |
| 2026-05-07 07:40 | -35.00035 | 140.04558 | 38855 ft | 500 kts | 85° |
| 2026-05-07 07:41 | -34.99718 | 140.08777 | 39180 ft | 501 kts | 85° |
| 2026-05-07 07:41 | -34.99397 | 140.13023 | 39372 ft | 503 kts | 85° |
| 2026-05-07 07:41 | -34.99074 | 140.17271 | 39415 ft | 503 kts | 85° |
| 2026-05-07 07:42 | -34.98425 | 140.25759 | 39416 ft | 503 kts | 85° |
| 2026-05-07 07:42 | -34.97802 | 140.34240 | 39405 ft | 502 kts | 87° |
| 2026-05-07 07:43 | -34.97711 | 140.42752 | 39417 ft | 502 kts | 91° |
| 2026-05-07 07:43 | -34.97808 | 140.51267 | 39402 ft | 502 kts | 91° |
| 2026-05-07 07:44 | -34.97908 | 140.59792 | 39408 ft | 503 kts | 91° |
| 2026-05-07 07:44 | -34.97978 | 140.68332 | 39402 ft | 504 kts | 91° |
| 2026-05-07 07:45 | -34.98029 | 140.76869 | 39404 ft | 503 kts | 91° |
| 2026-05-07 07:45 | -34.98072 | 140.85350 | 39393 ft | 504 kts | 91° |
| 2026-05-07 07:46 | -34.98109 | 140.93945 | 39401 ft | 504 kts | 91° |
| 2026-05-07 07:46 | -34.98142 | 141.02431 | 39398 ft | 504 kts | 91° |
| 2026-05-07 07:47 | -34.98169 | 141.10978 | 39399 ft | 505 kts | 91° |
| 2026-05-07 07:47 | -34.98190 | 141.19547 | 39390 ft | 506 kts | 91° |
| 2026-05-07 07:48 | -34.98204 | 141.28126 | 39384 ft | 506 kts | 91° |
| 2026-05-07 07:48 | -34.98213 | 141.36703 | 39389 ft | 506 kts | 91° |
| 2026-05-07 07:49 | -34.98215 | 141.45260 | 39385 ft | 502 kts | 91° |
| 2026-05-07 07:49 | -34.98216 | 141.53721 | 39384 ft | 497 kts | 91° |
| 2026-05-07 07:50 | -34.98205 | 141.62155 | 39378 ft | 498 kts | 91° |
| 2026-05-07 07:50 | -34.98187 | 141.70602 | 39379 ft | 498 kts | 90° |
| 2026-05-07 07:51 | -34.98165 | 141.79053 | 39379 ft | 498 kts | 90° |
| 2026-05-07 07:51 | -34.98137 | 141.87502 | 39376 ft | 498 kts | 91° |
| 2026-05-07 07:52 | -34.98104 | 141.95949 | 39371 ft | 498 kts | 91° |
| 2026-05-07 07:52 | -34.98066 | 142.04391 | 39374 ft | 498 kts | 90° |
| 2026-05-07 07:53 | -34.98023 | 142.12833 | 39367 ft | 498 kts | 91° |
| 2026-05-07 07:53 | -34.97984 | 142.21291 | 39369 ft | 499 kts | 91° |
| 2026-05-07 07:54 | -34.97934 | 142.29765 | 39378 ft | 500 kts | 91° |
| 2026-05-07 07:54 | -34.97873 | 142.38228 | 39365 ft | 499 kts | 91° |
| 2026-05-07 07:55 | -34.97804 | 142.46695 | 39364 ft | 499 kts | 91° |
| 2026-05-07 07:55 | -34.97729 | 142.55156 | 39366 ft | 499 kts | 91° |
| 2026-05-07 07:56 | -34.97650 | 142.63552 | 39360 ft | 498 kts | 91° |
| 2026-05-07 07:56 | -34.97565 | 142.72008 | 39357 ft | 500 kts | 90° |
| 2026-05-07 07:57 | -34.97473 | 142.80496 | 39358 ft | 501 kts | 91° |
| 2026-05-07 07:57 | -34.97374 | 142.89039 | 39353 ft | 500 kts | 90° |
| 2026-05-07 07:58 | -34.97270 | 142.97466 | 39348 ft | 500 kts | 90° |
| 2026-05-07 07:58 | -34.97159 | 143.06008 | 39345 ft | 500 kts | 91° |
| 2026-05-07 07:59 | -34.97045 | 143.14423 | 39344 ft | 500 kts | 91° |
| 2026-05-07 07:59 | -34.96924 | 143.22895 | 39333 ft | 500 kts | 90° |
| 2026-05-07 08:00 | -34.96816 | 143.31394 | 39345 ft | 501 kts | 91° |
| 2026-05-07 08:00 | -34.96717 | 143.39889 | 39346 ft | 501 kts | 91° |
| 2026-05-07 08:01 | -34.96610 | 143.48394 | 39343 ft | 501 kts | 90° |
| 2026-05-07 08:01 | -34.96495 | 143.56891 | 39341 ft | 501 kts | 90° |
| 2026-05-07 08:02 | -34.96373 | 143.65384 | 39335 ft | 501 kts | 90° |
| 2026-05-07 08:02 | -34.96245 | 143.73880 | 39336 ft | 501 kts | 90° |
| 2026-05-07 08:03 | -34.96111 | 143.82373 | 39329 ft | 501 kts | 90° |
| 2026-05-07 08:03 | -34.95971 | 143.90878 | 39336 ft | 502 kts | 90° |
| 2026-05-07 08:04 | -34.95825 | 143.99399 | 39332 ft | 503 kts | 90° |
| 2026-05-07 08:04 | -34.95674 | 144.07917 | 39330 ft | 503 kts | 90° |
| 2026-05-07 08:05 | -34.95511 | 144.16436 | 39325 ft | 503 kts | 90° |
| 2026-05-07 08:05 | -34.95338 | 144.24959 | 39340 ft | 503 kts | 90° |
| 2026-05-07 08:06 | -34.95161 | 144.33474 | 39323 ft | 502 kts | 90° |
| 2026-05-07 08:06 | -34.94984 | 144.41983 | 39320 ft | 502 kts | 90° |
| 2026-05-07 08:07 | -34.94834 | 144.49051 | 39318 ft | 502 kts | 90° |
| 2026-05-07 08:07 | -34.94647 | 144.57549 | 39314 ft | 501 kts | 90° |
| 2026-05-07 08:08 | -34.94422 | 144.67477 | 39315 ft | 501 kts | 90° |
| 2026-05-07 08:08 | -34.94258 | 144.74530 | 39312 ft | 501 kts | 90° |
| 2026-05-07 08:09 | -34.94054 | 144.83027 | 39313 ft | 502 kts | 91° |
| 2026-05-07 08:09 | -34.93844 | 144.91539 | 39309 ft | 503 kts | 90° |
| 2026-05-07 08:10 | -34.93628 | 145.00063 | 39298 ft | 504 kts | 90° |
| 2026-05-07 08:10 | -34.93404 | 145.08626 | 39307 ft | 506 kts | 90° |
| 2026-05-07 08:11 | -34.93170 | 145.17199 | 39300 ft | 507 kts | 90° |
| 2026-05-07 08:11 | -34.92924 | 145.25779 | 39295 ft | 507 kts | 90° |
| 2026-05-07 08:12 | -34.92671 | 145.34361 | 39297 ft | 507 kts | 90° |
| 2026-05-07 08:12 | -34.92415 | 145.42954 | 39293 ft | 507 kts | 90° |
| 2026-05-07 08:13 | -34.92153 | 145.51538 | 39293 ft | 507 kts | 90° |
| 2026-05-07 08:13 | -34.91885 | 145.60143 | 39287 ft | 509 kts | 90° |
| 2026-05-07 08:14 | -34.91611 | 145.68714 | 39291 ft | 510 kts | 90° |
| 2026-05-07 08:14 | -34.91328 | 145.77358 | 39289 ft | 511 kts | 90° |
| 2026-05-07 08:15 | -34.91039 | 145.86005 | 39282 ft | 511 kts | 90° |
| 2026-05-07 08:15 | -34.90744 | 145.94658 | 39284 ft | 511 kts | 90° |
| 2026-05-07 08:16 | -34.90443 | 146.03313 | 39279 ft | 511 kts | 90° |
| 2026-05-07 08:16 | -34.90135 | 146.11960 | 39277 ft | 511 kts | 90° |
| 2026-05-07 08:17 | -34.89822 | 146.20612 | 39274 ft | 512 kts | 90° |
| 2026-05-07 08:17 | -34.89502 | 146.29290 | 39277 ft | 513 kts | 90° |
| 2026-05-07 08:18 | -34.89175 | 146.37982 | 39271 ft | 514 kts | 90° |
| 2026-05-07 08:18 | -34.88841 | 146.46681 | 39275 ft | 514 kts | 90° |
| 2026-05-07 08:19 | -34.88501 | 146.55380 | 39268 ft | 514 kts | 89° |
| 2026-05-07 08:19 | -34.88155 | 146.64082 | 39269 ft | 514 kts | 89° |
| 2026-05-07 08:20 | -34.87803 | 146.72772 | 39267 ft | 514 kts | 89° |
| 2026-05-07 08:20 | -34.87444 | 146.81475 | 39260 ft | 516 kts | 89° |
| 2026-05-07 08:21 | -34.87079 | 146.90158 | 39268 ft | 517 kts | 89° |
| 2026-05-07 08:21 | -34.86706 | 146.98914 | 39260 ft | 518 kts | 89° |
| 2026-05-07 08:22 | -34.86327 | 147.07662 | 39255 ft | 518 kts | 89° |
| 2026-05-07 08:22 | -34.85940 | 147.16418 | 39262 ft | 518 kts | 89° |
| 2026-05-07 08:23 | -34.85547 | 147.25194 | 39256 ft | 519 kts | 89° |
| 2026-05-07 08:23 | -34.85147 | 147.33971 | 39251 ft | 519 kts | 89° |
| 2026-05-07 08:24 | -34.84741 | 147.42753 | 39251 ft | 521 kts | 89° |
| 2026-05-07 08:24 | -34.84327 | 147.51584 | 39247 ft | 523 kts | 89° |
| 2026-05-07 08:25 | -34.83904 | 147.60432 | 39243 ft | 524 kts | 89° |
| 2026-05-07 08:25 | -34.83475 | 147.69282 | 39253 ft | 524 kts | 89° |
| 2026-05-07 08:26 | -34.82819 | 147.82571 | 39242 ft | 524 kts | 89° |
| 2026-05-07 08:26 | -34.82374 | 147.91424 | 39240 ft | 524 kts | 89° |
| 2026-05-07 08:27 | -34.81922 | 148.00296 | 39240 ft | 527 kts | 89° |
| 2026-05-07 08:27 | -34.81461 | 148.09220 | 39232 ft | 530 kts | 89° |
| 2026-05-07 08:28 | -34.80993 | 148.18131 | 39234 ft | 531 kts | 89° |
| 2026-05-07 08:28 | -34.80514 | 148.27123 | 39231 ft | 536 kts | 89° |
| 2026-05-07 08:29 | -34.80025 | 148.36194 | 39231 ft | 538 kts | 88° |
| 2026-05-07 08:29 | -34.79528 | 148.45279 | 39224 ft | 538 kts | 88° |
| 2026-05-07 08:30 | -34.79024 | 148.54381 | 39003 ft | 545 kts | 88° |
| 2026-05-07 08:30 | -34.78765 | 148.59016 | 38746 ft | 550 kts | 88° |
| 2026-05-07 08:30 | -34.78502 | 148.63659 | 38475 ft | 551 kts | 88° |
| 2026-05-07 08:31 | -34.78237 | 148.68300 | 38167 ft | 550 kts | 88° |
| 2026-05-07 08:31 | -34.77971 | 148.72919 | 37681 ft | 544 kts | 89° |
| 2026-05-07 08:31 | -34.77704 | 148.77493 | 37097 ft | 540 kts | 90° |
| 2026-05-07 08:31 | -34.77438 | 148.82024 | 36438 ft | 535 kts | 91° |
| 2026-05-07 08:32 | -34.77172 | 148.86523 | 35798 ft | 531 kts | 91° |
| 2026-05-07 08:32 | -34.76909 | 148.90982 | 35156 ft | 527 kts | 92° |
| 2026-05-07 08:32 | -34.76646 | 148.95407 | 34465 ft | 523 kts | 94° |
| 2026-05-07 08:32 | -34.76385 | 148.99806 | 33663 ft | 520 kts | 94° |
| 2026-05-07 08:33 | -34.76125 | 149.04178 | 32920 ft | 516 kts | 94° |
| 2026-05-07 08:33 | -34.75865 | 149.08512 | 32353 ft | 509 kts | 95° |
| 2026-05-07 08:33 | -34.75604 | 149.12766 | 31864 ft | 501 kts | 95° |
| 2026-05-07 08:33 | -34.75347 | 149.16963 | 31377 ft | 494 kts | 95° |
| 2026-05-07 08:34 | -34.75092 | 149.21098 | 30890 ft | 487 kts | 95° |
| 2026-05-07 08:34 | -34.74840 | 149.25173 | 30404 ft | 481 kts | 96° |
| 2026-05-07 08:34 | -34.74591 | 149.29202 | 29872 ft | 474 kts | 96° |
| 2026-05-07 08:34 | -34.74337 | 149.33163 | 29372 ft | 468 kts | 95° |
| 2026-05-07 08:35 | -34.73837 | 149.37104 | 29007 ft | 477 kts | 87° |
| 2026-05-07 08:35 | -34.72891 | 149.41014 | 28549 ft | 487 kts | 77° |
| 2026-05-07 08:35 | -34.71514 | 149.44792 | 28068 ft | 490 kts | 72° |
| 2026-05-07 08:35 | -34.70011 | 149.48437 | 27593 ft | 489 kts | 70° |
| 2026-05-07 08:36 | -34.68423 | 149.52076 | 27096 ft | 487 kts | 69° |
| 2026-05-07 08:36 | -34.66814 | 149.55682 | 26629 ft | 484 kts | 68° |
| 2026-05-07 08:36 | -34.65210 | 149.59262 | 26150 ft | 481 kts | 69° |
| 2026-05-07 08:36 | -34.63624 | 149.62818 | 25692 ft | 478 kts | 70° |
| 2026-05-07 08:37 | -34.62054 | 149.66359 | 25182 ft | 474 kts | 70° |
| 2026-05-07 08:37 | -34.60504 | 149.69875 | 24705 ft | 472 kts | 69° |
| 2026-05-07 08:37 | -34.58963 | 149.73382 | 24231 ft | 470 kts | 69° |
| 2026-05-07 08:37 | -34.57428 | 149.76876 | 23752 ft | 468 kts | 69° |
| 2026-05-07 08:38 | -34.55905 | 149.80340 | 23219 ft | 464 kts | 70° |
| 2026-05-07 08:38 | -34.54388 | 149.83785 | 22722 ft | 461 kts | 70° |
| 2026-05-07 08:38 | -34.52883 | 149.87197 | 22248 ft | 457 kts | 70° |
| 2026-05-07 08:38 | -34.51389 | 149.90582 | 21812 ft | 453 kts | 71° |
| 2026-05-07 08:39 | -34.49910 | 149.93931 | 21305 ft | 448 kts | 71° |
| 2026-05-07 08:39 | -34.48447 | 149.97246 | 20828 ft | 442 kts | 71° |
| 2026-05-07 08:39 | -34.47002 | 150.00512 | 20379 ft | 439 kts | 71° |
| 2026-05-07 08:39 | -34.45565 | 150.03766 | 19909 ft | 437 kts | 71° |
| 2026-05-07 08:40 | -34.44131 | 150.07001 | 19433 ft | 435 kts | 71° |
| 2026-05-07 08:40 | -34.42704 | 150.10217 | 18964 ft | 432 kts | 71° |
| 2026-05-07 08:40 | -34.41283 | 150.13400 | 18493 ft | 428 kts | 71° |
| 2026-05-07 08:40 | -34.39875 | 150.16561 | 17993 ft | 424 kts | 71° |
| 2026-05-07 08:41 | -34.38491 | 150.19684 | 17527 ft | 419 kts | 70° |
| 2026-05-07 08:41 | -34.37111 | 150.22766 | 17056 ft | 413 kts | 68° |
| 2026-05-07 08:41 | -34.35751 | 150.25802 | 16611 ft | 407 kts | 68° |
| 2026-05-07 08:41 | -34.34422 | 150.28795 | 16170 ft | 401 kts | 68° |
| 2026-05-07 08:42 | -34.33109 | 150.31749 | 15704 ft | 397 kts | 67° |
| 2026-05-07 08:42 | -34.31806 | 150.34683 | 15260 ft | 396 kts | 67° |
| 2026-05-07 08:42 | -34.30506 | 150.37599 | 14840 ft | 391 kts | 66° |
| 2026-05-07 08:42 | -34.29223 | 150.40469 | 14404 ft | 386 kts | 65° |
| 2026-05-07 08:43 | -34.27968 | 150.43271 | 13981 ft | 381 kts | 65° |
| 2026-05-07 08:43 | -34.26704 | 150.46107 | 13523 ft | 376 kts | 65° |
| 2026-05-07 08:43 | -34.25486 | 150.48823 | 13110 ft | 369 kts | 65° |
| 2026-05-07 08:43 | -34.24275 | 150.51524 | 12691 ft | 362 kts | 65° |
| 2026-05-07 08:44 | -34.23081 | 150.54190 | 12277 ft | 361 kts | 65° |
| 2026-05-07 08:44 | -34.21887 | 150.56855 | 11866 ft | 359 kts | 65° |
| 2026-05-07 08:44 | -34.20702 | 150.59499 | 11463 ft | 357 kts | 64° |
| 2026-05-07 08:44 | -34.19520 | 150.62131 | 11040 ft | 355 kts | 64° |
| 2026-05-07 08:45 | -34.18350 | 150.64738 | 10593 ft | 351 kts | 64° |
| 2026-05-07 08:45 | -34.17212 | 150.67273 | 10442 ft | 335 kts | 64° |
| 2026-05-07 08:45 | -34.16124 | 150.69683 | 10307 ft | 319 kts | 64° |
| 2026-05-07 08:45 | -34.15084 | 150.71985 | 10175 ft | 306 kts | 65° |
| 2026-05-07 08:46 | -34.14085 | 150.74200 | 10050 ft | 296 kts | 65° |
| 2026-05-07 08:46 | -34.13112 | 150.76362 | 9826 ft | 297 kts | 65° |
| 2026-05-07 08:46 | -34.12105 | 150.78612 | 9604 ft | 310 kts | 65° |
| 2026-05-07 08:46 | -34.11073 | 150.80901 | 9292 ft | 311 kts | 65° |
| 2026-05-07 08:47 | -34.10040 | 150.83190 | 8937 ft | 310 kts | 65° |
| 2026-05-07 08:47 | -34.09013 | 150.85475 | 8752 ft | 310 kts | 65° |
| 2026-05-07 08:47 | -34.07985 | 150.87753 | 8570 ft | 309 kts | 65° |
| 2026-05-07 08:47 | -34.06960 | 150.90023 | 8372 ft | 307 kts | 65° |
| 2026-05-07 08:48 | -34.05941 | 150.92285 | 8181 ft | 307 kts | 65° |
| 2026-05-07 08:48 | -34.04922 | 150.94546 | 7975 ft | 306 kts | 65° |
| 2026-05-07 08:48 | -34.03905 | 150.96799 | 7801 ft | 305 kts | 65° |
| 2026-05-07 08:48 | -34.02921 | 150.99057 | 7594 ft | 303 kts | 70° |
| 2026-05-07 08:49 | -34.02255 | 151.01405 | 7405 ft | 298 kts | 81° |
| 2026-05-07 08:49 | -34.01772 | 151.03829 | 7187 ft | 297 kts | 81° |
| 2026-05-07 08:49 | -34.01240 | 151.06240 | 7005 ft | 298 kts | 81° |
| 2026-05-07 08:49 | -34.00697 | 151.08644 | 6804 ft | 297 kts | 81° |
| 2026-05-07 08:50 | -34.00155 | 151.11046 | 6606 ft | 297 kts | 81° |
| 2026-05-07 08:50 | -33.99614 | 151.13442 | 6400 ft | 296 kts | 81° |
| 2026-05-07 08:50 | -33.99075 | 151.15828 | 6184 ft | 295 kts | 81° |
| 2026-05-07 08:50 | -33.98538 | 151.18213 | 5984 ft | 295 kts | 80° |
| 2026-05-07 08:51 | -33.98001 | 151.20594 | 5770 ft | 294 kts | 80° |
| 2026-05-07 08:51 | -33.97471 | 151.22939 | 5551 ft | 285 kts | 81° |
| 2026-05-07 08:51 | -33.96957 | 151.25203 | 5354 ft | 275 kts | 81° |
| 2026-05-07 08:51 | -33.96461 | 151.27386 | 5160 ft | 266 kts | 81° |
| 2026-05-07 08:52 | -33.95983 | 151.29495 | 4982 ft | 257 kts | 81° |
| 2026-05-07 08:52 | -33.95518 | 151.31545 | 4772 ft | 250 kts | 81° |
| 2026-05-07 08:52 | -33.95043 | 151.33676 | 4637 ft | 279 kts | 80° |
| 2026-05-07 08:52 | -33.94529 | 151.35976 | 4430 ft | 284 kts | 78° |
| 2026-05-07 08:53 | -33.94020 | 151.38228 | 4215 ft | 274 kts | 78° |
| 2026-05-07 08:53 | -33.93463 | 151.40380 | 4006 ft | 266 kts | 69° |
| 2026-05-07 08:53 | -33.92342 | 151.42097 | 3825 ft | 259 kts | 35° |
| 2026-05-07 08:53 | -33.90764 | 151.42922 | 3635 ft | 240 kts | 1° |
| 2026-05-07 08:54 | -33.89234 | 151.42692 | 3503 ft | 208 kts | 326° |
| 2026-05-07 08:54 | -33.88289 | 151.41636 | 3344 ft | 169 kts | 281° |
| 2026-05-07 08:54 | -33.88362 | 151.40418 | 3213 ft | 138 kts | 236° |
| 2026-05-07 08:54 | -33.88788 | 151.39420 | 3061 ft | 130 kts | 242° |
| 2026-05-07 08:55 | -33.89138 | 151.38412 | 3012 ft | 137 kts | 246° |
| 2026-05-07 08:55 | -33.89437 | 151.37309 | 3000 ft | 143 kts | 250° |
| 2026-05-07 08:55 | -33.89700 | 151.36160 | 2997 ft | 142 kts | 250° |
| 2026-05-07 08:55 | -33.89961 | 151.35032 | 2864 ft | 139 kts | 250° |
| 2026-05-07 08:56 | -33.90225 | 151.33913 | 2666 ft | 139 kts | 250° |
| 2026-05-07 08:56 | -33.90489 | 151.32796 | 2465 ft | 137 kts | 249° |
| 2026-05-07 08:56 | -33.90750 | 151.31700 | 2271 ft | 136 kts | 250° |
| 2026-05-07 08:56 | -33.91003 | 151.30627 | 2092 ft | 130 kts | 251° |
| 2026-05-07 08:57 | -33.91247 | 151.29593 | 1915 ft | 127 kts | 251° |
| 2026-05-07 08:57 | -33.91487 | 151.28578 | 1736 ft | 126 kts | 251° |
| 2026-05-07 08:57 | -33.91730 | 151.27560 | 1563 ft | 128 kts | 252° |
| 2026-05-07 08:57 | -33.91971 | 151.26528 | 1396 ft | 128 kts | 251° |
| 2026-05-07 08:58 | -33.92208 | 151.25526 | 1215 ft | 119 kts | 251° |
| 2026-05-07 08:58 | -33.92427 | 151.24601 | 1061 ft | 112 kts | 251° |
| 2026-05-07 08:58 | -33.92567 | 151.24013 | 956 ft | 108 kts | 251° |
| 2026-05-07 08:58 | -33.92836 | 151.22886 | 750 ft | 102 kts | 255° |
| 2026-05-07 08:59 | -33.92966 | 151.22344 | 680 ft | 102 kts | 256° |
| 2026-05-07 08:59 | -33.93224 | 151.21231 | 511 ft | 104 kts | 257° |
| 2026-05-07 08:59 | -33.93349 | 151.20670 | 415 ft | 105 kts | 255° |
| 2026-05-07 08:59 | -33.93556 | 151.19815 | 244 ft | 106 kts | 255° |
| 2026-05-07 09:00 | -33.93761 | 151.18987 | 101 ft | 102 kts | 258° |
| 2026-05-07 09:00 | -33.93942 | 151.18202 | 37 ft | 87 kts | 253° |
| 2026-05-07 09:00 | -33.94037 | 151.17783 | 35 ft | 18 kts | 253° |
| 2026-05-07 09:00 | -33.94047 | 151.17700 | 35 ft | 7 kts | 285° |
| 2026-05-07 09:01 | -33.94002 | 151.17641 | 35 ft | 12 kts | 336° |
| 2026-05-07 09:01 | -33.93911 | 151.17613 | 35 ft | 15 kts | 347° |
| 2026-05-07 09:01 | -33.93797 | 151.17583 | 35 ft | 18 kts | 347° |
| 2026-05-07 09:01 | -33.93659 | 151.17546 | 35 ft | 22 kts | 349° |
| 2026-05-07 09:02 | -33.93495 | 151.17506 | 36 ft | 26 kts | 348° |
| 2026-05-07 09:02 | -33.93319 | 151.17487 | 36 ft | 26 kts | 349° |
| 2026-05-07 09:02 | -33.93145 | 151.17443 | 36 ft | 20 kts | 348° |
| 2026-05-07 09:02 | -33.93023 | 151.17411 | 37 ft | 12 kts | 351° |
| 2026-05-07 09:03 | -33.92990 | 151.17471 | 37 ft | 12 kts | 93° |
| 2026-05-07 09:03 | -33.93003 | 151.17580 | 36 ft | 8 kts | 101° |
| 2026-05-07 09:03 | -33.93040 | 151.17610 | 36 ft | 8 kts | 166° |
| 2026-05-07 09:03 | -33.93080 | 151.17621 | 36 ft | 2 kts | 167° |
| 2026-05-07 09:04 | -33.93095 | 151.17625 | 36 ft | 2 kts | 167° |
| 2026-05-07 09:04 | -33.93101 | 151.17627 | 36 ft | 0 kts | 167° |